createdAt,value
2017-12-19T00:04:01.726Z,14.60
2017-12-19T00:06:30.766Z,15.00
2017-12-19T00:09:03.059Z,14.45
2017-12-19T00:11:45.979Z,14.73
2017-12-19T00:14:15.026Z,12.50
2017-12-19T00:16:51.253Z,15.45
2017-12-19T00:19:20.316Z,15.37
2017-12-19T00:21:53.562Z,13.63
2017-12-19T00:24:35.162Z,14.98
2017-12-19T00:27:08.515Z,15.30
2017-12-19T00:29:37.563Z,17.60
2017-12-19T00:32:09.490Z,14.77
2017-12-19T00:34:38.760Z,14.95
2017-12-19T00:37:07.775Z,11.33
2017-12-19T00:42:13.646Z,13.30
2017-12-19T00:44:42.686Z,14.32
2017-12-19T00:49:52.878Z,12.57
2017-12-19T00:52:31.918Z,11.43
2017-12-19T00:55:01.016Z,13.70
2017-12-19T00:57:40.931Z,13.05
2017-12-19T01:00:09.974Z,9.27
2017-12-19T01:05:21.957Z,13.48
2017-12-19T01:07:51.008Z,12.20
2017-12-19T01:12:55.324Z,13.68
2017-12-19T01:17:59.550Z,13.40
2017-12-19T01:20:28.594Z,12.77
2017-12-19T01:22:57.667Z,13.05
2017-12-19T01:25:37.176Z,11.50
2017-12-19T01:28:06.249Z,12.90
2017-12-19T01:30:35.281Z,13.98
2017-12-19T01:33:04.338Z,14.15
2017-12-19T01:35:33.382Z,12.60
2017-12-19T01:38:02.463Z,12.73
2017-12-19T01:40:32.478Z,12.70
2017-12-19T01:43:01.515Z,9.83
2017-12-19T01:45:48.290Z,13.38
2017-12-19T01:50:53.486Z,13.30
2017-12-19T01:53:26.324Z,11.77
2017-12-19T01:55:55.378Z,12.90
2017-12-19T01:58:38.842Z,12.30
2017-12-19T02:01:07.886Z,13.57
2017-12-19T02:03:40.726Z,13.25
2017-12-19T02:06:09.817Z,8.90
2017-12-19T02:08:38.854Z,11.30
2017-12-19T02:11:07.954Z,10.70
2017-12-19T02:13:50.030Z,11.10
2017-12-19T02:18:56.240Z,11.60
2017-12-19T02:24:03.485Z,11.52
2017-12-19T02:26:32.521Z,10.67
2017-12-19T02:29:01.562Z,13.13
2017-12-19T02:31:36.301Z,13.20
2017-12-19T02:34:05.354Z,9.90
2017-12-19T02:36:42.211Z,12.32
2017-12-19T02:39:22.970Z,12.00
2017-12-19T02:41:52.023Z,12.90
2017-12-19T02:44:21.116Z,12.63
2017-12-19T02:46:50.169Z,12.50
2017-12-19T02:49:22.361Z,13.62
2017-12-19T02:51:51.422Z,12.97
2017-12-19T02:54:20.554Z,13.40
2017-12-19T03:02:01.226Z,14.48
2017-12-19T03:04:30.265Z,12.13
2017-12-19T03:06:59.301Z,15.00
2017-12-19T03:09:30.322Z,13.40
2017-12-19T03:11:59.386Z,14.70
2017-12-19T03:14:28.406Z,12.27
2017-12-19T03:16:57.450Z,13.98
2017-12-19T03:19:26.511Z,14.80
2017-12-19T03:21:55.561Z,14.40
2017-12-19T03:24:24.615Z,12.67
2017-12-19T03:26:54.607Z,14.63
2017-12-19T03:29:23.635Z,12.67
2017-12-19T03:31:52.702Z,14.73
2017-12-19T03:34:23.674Z,14.63
2017-12-19T03:36:52.725Z,15.00
2017-12-19T03:42:04.585Z,14.70
2017-12-19T03:44:35.586Z,17.60
2017-12-19T03:47:04.706Z,13.87
2017-12-19T03:49:33.747Z,15.02
2017-12-19T03:52:02.819Z,14.90
2017-12-19T03:54:31.863Z,15.10
2017-12-19T03:57:00.956Z,14.33
2017-12-19T03:59:30.910Z,15.30
2017-12-19T04:02:00.092Z,14.90
2017-12-19T04:04:31.035Z,15.40
2017-12-19T04:07:00.101Z,15.98
2017-12-19T04:09:30.064Z,15.60
2017-12-19T04:11:59.109Z,14.37
2017-12-19T04:17:03.336Z,15.50
2017-12-19T04:22:35.570Z,14.95
2017-12-19T04:25:04.618Z,13.10
2017-12-19T04:27:34.698Z,15.07
2017-12-19T04:30:03.757Z,13.73
2017-12-19T04:32:40.134Z,14.63
2017-12-19T04:35:09.178Z,14.90
2017-12-19T04:37:40.211Z,12.50
2017-12-19T04:40:09.257Z,14.20
2017-12-19T04:42:49.567Z,15.27
2017-12-19T04:47:56.506Z,15.43
2017-12-19T04:50:29.638Z,14.23
2017-12-19T04:52:58.718Z,15.80
2017-12-19T04:55:49.314Z,14.03
2017-12-19T04:58:26.364Z,16.47
2017-12-19T05:00:55.408Z,16.05
2017-12-19T05:03:24.437Z,12.90
2017-12-19T05:05:54.438Z,15.57
2017-12-19T05:08:23.457Z,15.00
2017-12-19T05:10:52.498Z,16.33
2017-12-19T05:13:21.537Z,16.95
2017-12-19T05:15:50.591Z,14.87
2017-12-19T05:18:19.638Z,16.10
2017-12-19T05:20:48.686Z,15.03
2017-12-19T05:23:21.231Z,16.98
2017-12-19T05:25:50.261Z,18.05
2017-12-19T05:28:22.970Z,17.80
2017-12-19T05:30:52.018Z,16.83
2017-12-19T05:33:22.006Z,16.87
2017-12-19T05:35:51.062Z,17.52
2017-12-19T05:38:20.114Z,16.58
2017-12-19T05:40:49.170Z,14.00
2017-12-19T05:43:18.211Z,16.80
2017-12-19T05:45:48.222Z,17.92
2017-12-19T05:48:21.707Z,15.03
2017-12-19T05:50:51.024Z,16.92
2017-12-19T05:53:30.690Z,18.27
2017-12-19T05:56:00.650Z,17.40
2017-12-19T06:01:04.958Z,18.35
2017-12-19T06:08:50.435Z,17.20
2017-12-19T06:11:45.411Z,14.00
2017-12-19T06:14:14.442Z,16.90
2017-12-19T06:16:43.550Z,16.90
2017-12-19T06:19:16.221Z,15.00
2017-12-19T06:26:58.725Z,16.73
2017-12-19T06:29:31.551Z,15.27
2017-12-19T06:32:00.603Z,16.15
2017-12-19T06:37:08.807Z,17.15
2017-12-19T06:42:30.506Z,17.98
2017-12-19T06:44:59.565Z,19.10
2017-12-19T06:47:28.630Z,19.23
2017-12-19T06:49:57.678Z,16.67
2017-12-19T06:52:27.754Z,19.75
2017-12-19T06:54:56.846Z,19.10
2017-12-19T06:57:29.319Z,18.10
2017-12-19T06:59:58.392Z,19.90
2017-12-19T07:02:37.259Z,18.10
2017-12-19T07:05:06.325Z,20.17
2017-12-19T07:07:47.196Z,21.15
2017-12-19T07:12:57.604Z,19.77
2017-12-19T07:15:39.428Z,17.47
2017-12-19T07:18:08.494Z,21.48
2017-12-19T07:23:14.666Z,22.60
2017-12-19T07:25:51.559Z,17.83
2017-12-19T07:28:21.679Z,21.42
2017-12-19T07:30:50.764Z,19.50
2017-12-19T07:33:25.043Z,21.77
2017-12-19T07:35:58.139Z,23.87
2017-12-19T07:38:28.210Z,24.63
2017-12-19T07:40:57.310Z,24.30
2017-12-19T07:43:26.359Z,22.93
2017-12-19T07:48:33.303Z,27.20
2017-12-19T07:51:02.291Z,29.00
2017-12-19T07:53:31.321Z,26.27
2017-12-19T07:56:04.118Z,28.00
2017-12-19T07:58:33.163Z,30.27
2017-12-19T08:01:15.221Z,27.40
2017-12-19T08:03:44.302Z,30.80
2017-12-19T08:06:24.297Z,31.83
2017-12-19T08:08:57.229Z,27.50
2017-12-19T08:11:26.293Z,30.10
2017-12-19T08:14:00.798Z,26.33
2017-12-19T08:16:33.790Z,32.65
2017-12-19T08:19:06.282Z,31.77
2017-12-19T08:21:39.086Z,32.15
2017-12-19T08:24:11.840Z,31.67
2017-12-19T08:26:40.884Z,28.60
2017-12-19T08:31:45.104Z,30.65
2017-12-19T08:34:31.926Z,27.60
2017-12-19T08:37:02.000Z,31.08
2017-12-19T08:39:31.054Z,27.77
2017-12-19T08:42:31.815Z,31.85
2017-12-19T08:47:41.055Z,32.97
2017-12-19T08:50:10.087Z,32.85
2017-12-19T08:52:39.138Z,29.73
2017-12-19T08:55:10.078Z,33.83
2017-12-19T08:57:39.135Z,28.40
2017-12-19T09:00:10.123Z,33.78
2017-12-19T09:02:39.168Z,33.87
2017-12-19T09:05:08.223Z,36.53
2017-12-19T09:07:37.262Z,33.00
2017-12-19T09:12:43.163Z,35.63
2017-12-19T09:15:15.914Z,37.03
2017-12-19T09:17:45.012Z,34.00
2017-12-19T09:20:34.975Z,34.88
2017-12-19T09:25:47.156Z,37.55
2017-12-19T09:28:19.947Z,34.70
2017-12-19T09:30:50.023Z,38.00
2017-12-19T09:36:16.971Z,33.70
2017-12-19T09:38:46.021Z,33.80
2017-12-19T09:41:25.239Z,37.92
2017-12-19T09:46:32.705Z,37.78
2017-12-19T09:51:40.073Z,38.45
2017-12-19T09:54:10.054Z,36.87
2017-12-19T09:56:39.098Z,36.25
2017-12-19T09:59:10.054Z,32.00
2017-12-19T10:01:39.103Z,34.63
2017-12-19T10:04:10.050Z,36.15
2017-12-19T10:06:39.080Z,35.27
2017-12-19T10:09:24.818Z,35.50
2017-12-19T10:12:04.897Z,33.70
2017-12-19T10:14:33.942Z,37.25
2017-12-19T10:17:06.856Z,32.77
2017-12-19T10:19:36.822Z,35.15
2017-12-19T10:22:05.866Z,35.40
2017-12-19T10:24:34.917Z,32.60
2017-12-19T10:27:16.732Z,33.75
2017-12-19T10:29:45.769Z,34.07
2017-12-19T10:32:19.654Z,35.65
2017-12-19T10:34:48.682Z,36.57
2017-12-19T10:37:31.232Z,31.50
2017-12-19T10:40:31.596Z,34.67
2017-12-19T10:45:35.849Z,32.33
2017-12-19T10:48:26.581Z,34.03
2017-12-19T10:54:04.972Z,43.08
2017-12-19T10:56:35.396Z,34.90
2017-12-19T10:59:05.382Z,37.65
2017-12-19T11:01:35.515Z,35.90
2017-12-19T11:04:15.952Z,36.10
2017-12-19T11:06:45.003Z,29.60
2017-12-19T11:09:17.901Z,35.45
2017-12-19T11:11:46.938Z,33.53
2017-12-19T11:14:19.327Z,27.17
2017-12-19T11:16:48.369Z,34.17
2017-12-19T11:22:14.986Z,30.20
2017-12-19T11:24:44.024Z,34.57
2017-12-19T11:29:56.268Z,31.45
2017-12-19T11:32:31.747Z,33.10
2017-12-19T11:35:07.937Z,29.40
2017-12-19T11:37:37.873Z,34.30
2017-12-19T11:40:10.462Z,34.40
2017-12-19T11:42:40.450Z,31.53
2017-12-19T11:47:47.955Z,32.10
2017-12-19T11:50:31.808Z,33.40
2017-12-19T11:53:00.866Z,29.97
2017-12-19T11:55:31.079Z,30.33
2017-12-19T11:58:00.094Z,27.07
2017-12-19T12:00:31.079Z,27.73
2017-12-19T12:03:22.098Z,28.57
2017-12-19T12:06:14.322Z,26.40
2017-12-19T12:08:48.803Z,26.90
2017-12-19T12:11:32.166Z,28.60
2017-12-19T12:14:05.087Z,29.90
2017-12-19T12:16:34.133Z,25.90
2017-12-19T12:19:11.579Z,30.57
2017-12-19T12:21:40.634Z,22.90
2017-12-19T12:24:27.251Z,24.52
2017-12-19T12:26:56.323Z,27.87
2017-12-19T12:29:38.090Z,24.77
2017-12-19T12:32:29.374Z,21.90
2017-12-19T12:35:00.319Z,28.20
2017-12-19T12:37:31.277Z,22.57
2017-12-19T12:40:04.632Z,23.60
2017-12-19T12:42:34.695Z,29.07
2017-12-19T12:45:28.632Z,25.87
2017-12-19T12:50:34.682Z,30.67
2017-12-19T12:53:05.082Z,34.50
2017-12-19T12:55:34.144Z,29.33
2017-12-19T12:58:03.173Z,31.03
2017-12-19T13:00:33.151Z,23.90
2017-12-19T13:03:02.238Z,24.40
2017-12-19T13:05:36.460Z,21.58
2017-12-19T13:08:05.810Z,17.30
2017-12-19T13:10:38.634Z,14.27
2017-12-19T13:13:07.678Z,13.45
2017-12-19T13:15:44.336Z,11.33
2017-12-19T13:18:13.409Z,13.30
2017-12-19T13:20:42.445Z,13.68
2017-12-19T13:23:11.528Z,15.97
2017-12-19T13:25:42.455Z,11.40
2017-12-19T13:28:11.500Z,15.82
2017-12-19T13:30:43.627Z,15.63
2017-12-19T13:33:12.696Z,15.20
2017-12-19T13:35:53.491Z,16.08
2017-12-19T13:38:26.320Z,17.60
2017-12-19T13:40:56.253Z,17.90
2017-12-19T13:46:03.464Z,17.70
2017-12-19T13:48:33.430Z,16.73
2017-12-19T13:51:02.477Z,19.85
2017-12-19T13:56:09.750Z,22.00
2017-12-19T13:58:42.638Z,23.90
2017-12-19T14:01:11.678Z,22.00
2017-12-19T14:03:44.484Z,24.73
2017-12-19T14:06:13.530Z,28.15
2017-12-19T14:08:53.569Z,25.23
2017-12-19T14:11:26.381Z,25.27
2017-12-19T14:14:18.310Z,27.73
2017-12-19T14:19:30.061Z,28.73
2017-12-19T14:22:01.067Z,29.20
2017-12-19T14:24:30.119Z,29.08
2017-12-19T14:27:01.119Z,29.20
2017-12-19T14:29:45.138Z,29.95
2017-12-19T14:32:14.207Z,31.80
2017-12-19T14:35:04.210Z,31.20
2017-12-19T14:40:09.435Z,30.83
2017-12-19T14:42:38.475Z,32.70
2017-12-19T14:45:10.996Z,32.67
2017-12-19T14:47:40.038Z,30.87
2017-12-19T14:52:46.250Z,36.83
2017-12-19T14:55:16.166Z,34.90
2017-12-19T15:00:22.678Z,35.47
2017-12-19T15:02:55.521Z,35.80
2017-12-19T15:05:24.558Z,31.70
2017-12-19T15:07:57.160Z,36.38
2017-12-19T15:10:26.198Z,31.17
2017-12-19T15:16:08.664Z,39.42
2017-12-19T15:18:39.642Z,32.00
2017-12-19T15:21:09.602Z,36.28
2017-12-19T15:23:38.654Z,35.97
2017-12-19T15:26:08.632Z,31.97
2017-12-19T15:28:41.462Z,35.97
2017-12-19T15:34:06.547Z,34.50
2017-12-19T15:36:48.535Z,30.83
2017-12-19T15:39:17.561Z,30.20
2017-12-19T15:41:54.606Z,34.38
2017-12-19T15:47:02.952Z,36.80
2017-12-19T15:49:33.665Z,39.20
2017-12-19T15:52:32.763Z,38.43
2017-12-19T15:55:01.810Z,32.77
2017-12-19T15:57:32.794Z,35.75
2017-12-19T16:00:05.170Z,40.97
2017-12-19T16:02:34.225Z,29.20
2017-12-19T16:05:11.403Z,32.50
2017-12-19T16:07:40.454Z,30.70
2017-12-19T16:10:13.091Z,36.47
2017-12-19T16:12:44.131Z,37.75
2017-12-19T16:15:18.719Z,35.90
2017-12-19T16:17:47.754Z,31.50
2017-12-19T16:20:18.813Z,38.45
2017-12-19T16:22:48.923Z,38.90
2017-12-19T16:25:18.934Z,37.27
2017-12-19T16:27:48.891Z,36.85
2017-12-19T16:30:25.747Z,35.50
2017-12-19T16:32:54.883Z,39.45
2017-12-19T16:35:27.253Z,37.40
2017-12-19T16:38:01.155Z,42.97
2017-12-19T16:40:32.229Z,38.20
2017-12-19T16:43:32.390Z,42.28
2017-12-19T16:46:25.816Z,40.53
2017-12-19T16:48:54.870Z,45.75
2017-12-19T16:51:27.729Z,37.10
2017-12-19T16:54:00.494Z,44.53
2017-12-19T16:59:31.897Z,41.63
2017-12-19T17:02:19.802Z,38.97
2017-12-19T17:04:49.832Z,48.78
2017-12-19T17:10:09.978Z,45.30
2017-12-19T17:12:39.003Z,43.73
2017-12-19T17:15:08.074Z,46.90
2017-12-19T17:17:50.124Z,45.80
2017-12-19T17:20:32.339Z,51.97
2017-12-19T17:23:01.483Z,47.30
2017-12-19T17:25:54.626Z,47.75
2017-12-19T17:30:59.879Z,48.60
2017-12-19T17:36:08.279Z,46.45
2017-12-19T17:44:09.187Z,47.50
2017-12-19T17:49:15.361Z,42.85
2017-12-19T17:54:21.499Z,44.30
2017-12-19T17:56:54.274Z,45.25
2017-12-19T18:02:02.512Z,43.47
2017-12-19T18:04:53.394Z,47.15
2017-12-19T18:07:31.575Z,44.07
2017-12-19T18:10:00.642Z,43.28
2017-12-19T18:15:12.075Z,48.45
2017-12-19T18:17:41.109Z,49.10
2017-12-19T18:20:10.142Z,49.88
2017-12-19T18:22:39.203Z,41.63
2017-12-19T18:25:08.308Z,47.47
2017-12-19T18:30:22.547Z,46.58
2017-12-19T18:32:55.366Z,46.80
2017-12-19T18:35:28.184Z,48.00
2017-12-19T18:38:01.035Z,41.13
2017-12-19T18:40:30.094Z,45.15
2017-12-19T18:43:03.660Z,45.13
2017-12-19T18:45:32.702Z,46.15
2017-12-19T18:50:50.944Z,48.10
2017-12-19T18:53:20.660Z,44.50
2017-12-19T18:56:00.631Z,40.58
2017-12-19T18:58:29.691Z,38.30
2017-12-19T19:01:02.453Z,40.35
2017-12-19T19:03:31.495Z,40.17
2017-12-19T19:06:10.186Z,38.63
2017-12-19T19:11:20.184Z,43.28
2017-12-19T19:13:52.642Z,40.97
2017-12-19T19:16:21.713Z,41.10
2017-12-19T19:19:18.190Z,43.85
2017-12-19T19:21:47.238Z,38.60
2017-12-19T19:24:19.760Z,41.17
2017-12-19T19:26:48.811Z,38.20
2017-12-19T19:29:21.578Z,40.88
2017-12-19T19:34:28.854Z,37.83
2017-12-19T19:36:57.962Z,39.87
2017-12-19T19:39:26.958Z,37.90
2017-12-19T19:44:37.182Z,38.63
2017-12-19T19:49:45.404Z,40.30
2017-12-19T19:52:18.259Z,36.83
2017-12-19T19:54:47.388Z,39.90
2017-12-19T19:57:29.018Z,32.87
2017-12-19T19:59:58.098Z,41.50
2017-12-19T20:02:37.983Z,40.35
2017-12-19T20:07:44.190Z,41.75
2017-12-19T20:12:51.454Z,40.88
2017-12-19T20:15:22.410Z,38.47
2017-12-19T20:17:51.453Z,37.83
2017-12-19T20:20:22.465Z,38.03
2017-12-19T20:22:51.686Z,33.90
2017-12-19T20:25:20.768Z,36.38
2017-12-19T20:27:49.811Z,34.30
2017-12-19T20:30:18.882Z,36.78
2017-12-19T20:35:23.240Z,35.55
2017-12-19T20:37:52.306Z,36.85
2017-12-19T20:42:58.610Z,38.00
2017-12-19T20:45:30.642Z,32.13
2017-12-19T20:48:00.903Z,34.75
2017-12-19T20:50:29.982Z,37.00
2017-12-19T20:52:59.022Z,39.45
2017-12-19T20:55:28.136Z,34.27
2017-12-19T20:57:57.196Z,39.38
2017-12-19T21:00:26.344Z,42.20
2017-12-19T21:02:56.536Z,45.47
2017-12-19T21:05:25.596Z,42.83
2017-12-19T21:07:54.675Z,42.10
2017-12-19T21:10:23.751Z,51.28
2017-12-19T21:12:53.090Z,35.87
2017-12-19T21:15:22.130Z,44.85
2017-12-19T21:18:04.909Z,42.40
2017-12-19T21:20:33.929Z,40.22
2017-12-19T21:23:03.396Z,33.78
2017-12-19T21:25:32.507Z,35.93
2017-12-19T21:28:05.211Z,31.77
2017-12-19T21:30:39.912Z,31.53
2017-12-19T21:33:14.308Z,34.10
2017-12-19T21:35:47.338Z,34.13
2017-12-19T21:38:16.382Z,24.80
2017-12-19T21:40:55.901Z,31.70
2017-12-19T21:43:24.959Z,24.20
2017-12-19T21:45:56.008Z,23.85
2017-12-19T21:48:28.699Z,27.33
2017-12-19T21:50:58.671Z,24.45
2017-12-19T21:53:28.624Z,26.25
2017-12-19T21:56:04.906Z,24.37
2017-12-19T21:58:34.918Z,24.63
2017-12-19T22:01:07.736Z,24.27
2017-12-19T22:03:40.598Z,26.23
2017-12-19T22:06:09.679Z,24.90
2017-12-19T22:08:40.615Z,25.80
2017-12-19T22:11:09.659Z,21.80
2017-12-19T22:16:15.543Z,23.45
2017-12-19T22:18:45.489Z,25.20
2017-12-19T22:21:14.535Z,23.10
2017-12-19T22:23:43.579Z,28.98
2017-12-19T22:26:12.617Z,25.83
2017-12-19T22:28:41.698Z,24.30
2017-12-19T22:31:10.770Z,27.65
2017-12-19T22:33:39.843Z,28.80
2017-12-19T22:36:17.157Z,32.05
2017-12-19T22:38:46.193Z,22.93
2017-12-19T22:41:19.071Z,24.40
2017-12-19T22:46:39.464Z,26.00
2017-12-19T22:49:21.491Z,26.87
2017-12-19T22:51:51.391Z,28.55
2017-12-19T22:56:56.629Z,30.30
2017-12-19T22:59:25.683Z,28.60
2017-12-19T23:01:54.723Z,23.00
2017-12-19T23:04:23.773Z,26.85
2017-12-19T23:06:52.822Z,21.93
2017-12-19T23:11:59.176Z,26.97
2017-12-19T23:14:30.180Z,28.12
2017-12-19T23:16:59.254Z,32.13
2017-12-19T23:19:28.290Z,30.50
2017-12-19T23:21:57.322Z,26.85
2017-12-19T23:24:34.981Z,25.73
2017-12-19T23:29:41.206Z,27.13
2017-12-19T23:32:10.253Z,28.77
2017-12-19T23:34:40.298Z,25.27
2017-12-19T23:37:09.378Z,27.92
2017-12-19T23:39:38.541Z,21.47
2017-12-19T23:42:12.694Z,26.52
2017-12-19T23:44:41.734Z,26.97
2017-12-19T23:47:10.847Z,21.60
2017-12-19T23:49:39.906Z,24.40
2017-12-19T23:52:09.930Z,24.23
2017-12-19T23:54:40.976Z,22.20
2017-12-19T23:57:15.902Z,29.52
2017-12-19T23:59:50.056Z,26.30
